X  Chiuso Dati meteorologici dell'aviazione (METAR)        LIBA Tremiti Eliporto
Temperatura
13°C Temperatura
9°C Punto di rugiada
77% Umidità



Vento
17 KM/O
10 MPH
4 M/S
9 KTS



80°
E
Condizioni attuali

Mostly Sunny Per lo piu' sereno
Pressione 1009 (hPa) - 29.79 (inHg)
Visibilità 6 (miglio) - 10 (km)
Aeroporto
Codice-Aeroporto LIBA

Posizione: Tremiti Eliporto
Distanza: 60 (km)

Metar:
METAR LIBA 270755Z 08009KT CAVOK 13/09 Q1009 RMK SCT SCT140 VIS MIN 9999 WIND THR11 07010KT WIND THR29 /////KT BLU

Ore: 27-02-2024 08:55 CET